MMTO/TLC METAR and TAF weather

Enter ICAO airport designator
Station Type Date Time Source
MMTO METAR 2019/02/22 21:47 UTC NOAA

MMTO 222147Z 25007KT 7SM FEW020 BKN200 23/M02 A3029 RMK 8/107 HALO


Station Type Date Time Source
MMTO Decoded METAR 2019/02/22 21:47 UTC NOAA

Toluca / Jose Maria , Mexico (MMTO) 19-21N 099-34W
Feb 22, 2019 - 04:47 PM EST / 2019.02.22 2147 UTC
Wind: from the WSW (250 degrees) at 8 MPH (7 KT):0
Visibility: 7 mile(s):0
Sky conditions: mostly cloudy
Temperature: 73 F (23 C)
Dew Point: 28 F (-2 C)
Relative Humidity: 18%
Pressure (altimeter): 30.29 in. Hg (1025 hPa)
ob: MMTO 222147Z 25007KT 7SM FEW020 BKN200 23/M02 A3029 RMK 8/107 HALO
cycle: 22

Station Type Date Time Source
MMTO TAF 2019/02/22 18:17 UTC NOAA

TAF MMTO 221610Z 2218/2324 23008KT 6SM HZ BKN220 TX23/2221Z TN01/2313Z
BECMG 2220/2221 23015KT SCT015 BKN220
FM230200 00000KT P6SM BKN220
BECMG 2312/2313 6SM HZ
FM231800 23006KT 6SM HZ BKN220
BECMG 2320/2321 23015KT SCT015 BKN220


Example: see airport list